»·PEaware :: WAT306 KSAN-KSAC

WAT306 :: KSAN-KSAC

FLIGHT INFORMATION

Flight Status: Arrived
Operator:
Walker Air Transport
More flights by this operator :: More flights under this callsign
Pilot: Ethan S. (29221)
Aircraft: SOCATA TBM-900
(TBM9)
More flights by this aircraft type
Origin: KSAN San Diego Intl-Lindbergh
United States
Destination: KSAC Sacramento Executive
United States
More flights between these airports :: More routes between these airports
Route: PADRZ2 OROSZ FRAME
File this flight plan on PilotEdge
Remarks:
Altitude:
(Current/Filed)
30,000ft
Speed:
(Current/Filed)
320kts
Departed: 18-Oct-20 08:26 PM
Arrived: 18-Oct-20 09:58 PM
Distance/Time
Traveled:
405nm/1:31
Distance/Time
To Go:
Arrived

Flight Plot

Page will automatically refresh every two minutes.

Flight plan parsing failed; only flown route is shown


Map Options




Map Legend


Flown Route
Filed Route
Departure Airport
Arrival Airport
Navaid (VOR, NDB)
Fix

Horizontal Profiles

Position Reports

Time Latitude Longitude Heading Altitude Ground
Speed
18-Oct-20 20:14 32.733730 -117.178642 233 20ft 0kts
18-Oct-20 20:15 32.733730 -117.178642 233 20ft 0kts
18-Oct-20 20:16 32.733730 -117.178642 233 20ft 0kts
18-Oct-20 20:17 32.733730 -117.178642 233 20ft 0kts
18-Oct-20 20:18 32.733730 -117.178642 233 20ft 0kts
18-Oct-20 20:19 32.733730 -117.178642 233 20ft 0kts
18-Oct-20 20:20 32.733730 -117.178642 233 20ft 0kts
18-Oct-20 20:21 32.733730 -117.178642 233 20ft 0kts
18-Oct-20 20:22 32.733712 -117.178672 233 20ft 3kts
18-Oct-20 20:23 32.732358 -117.176494 149 20ft 13kts
18-Oct-20 20:24 32.730891 -117.175503 145 20ft 0kts
18-Oct-20 20:25 32.730718 -117.177952 286 20ft 41kts
18-Oct-20 20:26 32.741962 -117.212628 305 1376ft 134kts
18-Oct-20 20:27 32.761307 -117.247545 303 3544ft 125kts
18-Oct-20 20:28 32.780488 -117.283244 303 5953ft 125kts
18-Oct-20 20:29 32.799640 -117.318284 307 8135ft 125kts
18-Oct-20 20:30 32.821776 -117.352722 306 10451ft 128kts
18-Oct-20 20:31 32.844455 -117.387882 305 12646ft 129kts
18-Oct-20 20:32 32.869048 -117.426095 305 14021ft 168kts
18-Oct-20 20:33 32.904582 -117.481329 305 13980ft 218kts
18-Oct-20 20:34 32.940366 -117.536870 304 16054ft 149kts
18-Oct-20 20:35 32.964995 -117.575335 303 18049ft 148kts
18-Oct-20 20:36 32.990814 -117.615623 303 20426ft 151kts
18-Oct-20 20:37 33.017490 -117.657298 302 22805ft 158kts
18-Oct-20 20:38 33.045244 -117.700674 301 25216ft 165kts
18-Oct-20 20:39 33.077010 -117.742710 311 27417ft 175kts
18-Oct-20 20:40 33.114977 -117.781527 311 29422ft 181kts
18-Oct-20 20:41 33.158306 -117.825767 313 30080ft 236kts
18-Oct-20 20:42 33.214697 -117.882252 315 30052ft 277kts
18-Oct-20 20:43 33.276796 -117.942822 315 30056ft 288kts
18-Oct-20 20:44 33.340752 -118.005322 315 30056ft 293kts
18-Oct-20 20:45 33.405016 -118.068249 315 30043ft 294kts
18-Oct-20 20:46 33.469330 -118.131347 315 30037ft 293kts
18-Oct-20 20:47 33.533551 -118.194482 315 30054ft 292kts
18-Oct-20 20:48 33.602338 -118.250627 329 30073ft 299kts
18-Oct-20 20:49 33.679814 -118.293387 329 30060ft 300kts
18-Oct-20 20:50 33.757200 -118.336082 329 30038ft 300kts
18-Oct-20 20:51 33.836226 -118.375986 331 30033ft 301kts
18-Oct-20 20:52 33.914794 -118.415663 331 30033ft 301kts
18-Oct-20 20:54 33.993617 -118.455548 331 30031ft 301kts
18-Oct-20 20:55 34.072062 -118.495364 331 30030ft 301kts
18-Oct-20 20:56 34.150168 -118.535090 331 30028ft 301kts
18-Oct-20 20:57 34.227944 -118.574727 331 30024ft 300kts
18-Oct-20 20:58 34.305949 -118.614564 331 30024ft 300kts
18-Oct-20 20:59 34.384503 -118.653342 331 30029ft 300kts
18-Oct-20 21:00 34.464071 -118.690773 333 30034ft 302kts
18-Oct-20 21:01 34.544664 -118.726645 333 30035ft 303kts
18-Oct-20 21:02 34.624892 -118.762426 333 30090ft 301kts
18-Oct-20 21:03 34.704542 -118.798022 333 30187ft 300kts
18-Oct-20 21:04 34.784290 -118.833743 333 30199ft 302kts
18-Oct-20 21:05 34.864649 -118.869807 333 30167ft 304kts
18-Oct-20 21:06 34.945574 -118.906259 335 30135ft 305kts
18-Oct-20 21:07 35.026252 -118.942608 336 30107ft 305kts
18-Oct-20 21:08 35.107118 -118.979079 336 30056ft 306kts
18-Oct-20 21:09 35.188839 -119.016057 336 30022ft 306kts
18-Oct-20 21:10 35.269861 -119.052807 336 30018ft 306kts
18-Oct-20 21:11 35.351250 -119.089801 336 30018ft 305kts
18-Oct-20 21:12 35.431918 -119.126546 336 30019ft 305kts
18-Oct-20 21:12 35.499298 -119.157299 336 30021ft 305kts
18-Oct-20 21:14 35.593656 -119.200458 336 30024ft 305kts
18-Oct-20 21:14 35.661421 -119.231519 336 30026ft 305kts
18-Oct-20 21:16 35.755315 -119.274651 336 30026ft 305kts
18-Oct-20 21:16 35.822910 -119.305773 336 30026ft 305kts
18-Oct-20 21:17 35.903789 -119.343076 336 30027ft 305kts
18-Oct-20 21:18 35.984337 -119.380313 336 30030ft 305kts
18-Oct-20 21:19 36.065969 -119.418132 336 30028ft 305kts
18-Oct-20 21:20 36.147278 -119.455881 336 30026ft 305kts
18-Oct-20 21:21 36.228289 -119.493584 336 30025ft 305kts
18-Oct-20 21:22 36.309186 -119.531313 336 30025ft 305kts
18-Oct-20 21:23 36.389929 -119.569059 336 30025ft 305kts
18-Oct-20 21:24 36.470518 -119.606811 336 30025ft 305kts
18-Oct-20 21:25 36.551753 -119.644954 336 30024ft 305kts
18-Oct-20 21:26 36.629898 -119.689730 321 30035ft 301kts
18-Oct-20 21:27 36.698727 -119.753391 320 30028ft 301kts
18-Oct-20 21:28 36.767375 -119.817295 320 30028ft 301kts
18-Oct-20 21:29 36.836058 -119.881378 320 30027ft 301kts
18-Oct-20 21:30 36.904262 -119.945168 320 30027ft 301kts
18-Oct-20 21:31 36.972463 -120.009114 320 30027ft 301kts
18-Oct-20 21:32 37.040224 -120.072792 321 29982ft 301kts
18-Oct-20 21:33 37.111264 -120.139723 321 28776ft 322kts
18-Oct-20 21:34 37.184562 -120.208889 321 27581ft 325kts
18-Oct-20 21:35 37.257109 -120.277540 321 26547ft 317kts
18-Oct-20 21:36 37.328441 -120.345217 321 25518ft 314kts
18-Oct-20 21:37 37.399252 -120.412561 321 24492ft 314kts
18-Oct-20 21:38 37.470351 -120.480344 321 23459ft 313kts
18-Oct-20 21:39 37.541037 -120.547887 321 22428ft 309kts
18-Oct-20 21:40 37.608485 -120.612501 321 21209ft 294kts
18-Oct-20 21:41 37.675173 -120.676542 321 19667ft 295kts
18-Oct-20 21:42 37.741612 -120.740484 321 18119ft 289kts
18-Oct-20 21:43 37.806628 -120.803200 321 16576ft 286kts
18-Oct-20 21:44 37.871182 -120.865611 321 15025ft 281kts
18-Oct-20 21:45 37.934558 -120.927023 321 13475ft 278kts
18-Oct-20 21:46 37.997429 -120.988076 321 11931ft 277kts
18-Oct-20 21:47 38.059802 -121.048783 321 10389ft 275kts
18-Oct-20 21:48 38.119213 -121.106718 321 10005ft 248kts
18-Oct-20 21:49 38.174548 -121.160799 320 9998ft 240kts
18-Oct-20 21:50 38.230338 -121.215452 321 8954ft 262kts
18-Oct-20 21:51 38.290346 -121.274353 321 7421ft 268kts
18-Oct-20 21:52 38.350768 -121.333768 322 5887ft 270kts
18-Oct-20 21:53 38.406827 -121.389006 322 4981ft 223kts
18-Oct-20 21:54 38.455597 -121.426750 335 3635ft 185kts
18-Oct-20 21:55 38.501269 -121.452195 342 2150ft 158kts
18-Oct-20 21:56 38.526686 -121.481184 253 632ft 98kts
18-Oct-20 21:57 38.512300 -121.494858 213 20ft 22kts
18-Oct-20 21:58 38.512800 -121.496894 14 19ft 15kts
18-Oct-20 21:59 38.514856 -121.499105 222 20ft 5kts
18-Oct-20 22:00 38.514763 -121.499211 223 19ft 0kts
18-Oct-20 22:01 38.514763 -121.499211 223 20ft 0kts
18-Oct-20 22:02 38.514763 -121.499211 223 20ft 0kts

Navigation Log

Ident Type
Flight plan parsing failed, navigation log unavailable